createdAt,value
2023-08-31T00:01:36.624Z,12.82
2023-08-31T00:04:05.205Z,12.79
2023-08-31T00:06:31.901Z,12.74
2023-08-31T00:08:58.591Z,12.68
2023-08-31T00:11:27.076Z,12.66
2023-08-31T00:13:53.799Z,12.64
2023-08-31T00:16:26.875Z,12.60
2023-08-31T00:18:54.208Z,12.56
2023-08-31T00:21:22.318Z,12.53
2023-08-31T00:23:49.570Z,12.51
2023-08-31T00:26:16.321Z,12.48
2023-08-31T00:28:43.998Z,12.47
2023-08-31T00:31:10.757Z,12.44
2023-08-31T00:33:39.689Z,12.41
2023-08-31T00:36:06.557Z,12.41
2023-08-31T00:38:33.373Z,12.40
2023-08-31T00:41:01.541Z,12.40
2023-08-31T00:43:29.050Z,12.39
2023-08-31T00:45:59.443Z,12.39
2023-08-31T00:48:26.602Z,12.39
2023-08-31T00:50:53.579Z,12.36
2023-08-31T00:53:20.379Z,12.35
2023-08-31T00:55:47.316Z,12.34
2023-08-31T00:58:14.789Z,12.32
2023-08-31T01:00:48.215Z,12.29
2023-08-31T01:03:29.150Z,12.28
2023-08-31T01:06:22.122Z,12.24
2023-08-31T01:09:15.524Z,12.22
2023-08-31T01:12:06.678Z,12.20
2023-08-31T01:14:40.844Z,12.16
2023-08-31T01:17:10.126Z,12.15
2023-08-31T01:19:56.726Z,12.14
2023-08-31T01:22:43.591Z,12.15
2023-08-31T01:25:10.974Z,12.15
2023-08-31T01:27:38.734Z,12.14
2023-08-31T01:30:06.777Z,12.13
2023-08-31T01:32:34.122Z,12.12
2023-08-31T01:35:05.381Z,12.11
2023-08-31T01:37:44.959Z,12.12
2023-08-31T01:40:26.005Z,12.13
2023-08-31T01:42:53.176Z,12.11
2023-08-31T01:45:24.070Z,12.15
2023-08-31T01:47:50.877Z,12.16
2023-08-31T01:50:18.136Z,12.18
2023-08-31T01:52:44.772Z,12.20
2023-08-31T01:55:12.025Z,12.22
2023-08-31T01:57:38.634Z,12.24
2023-08-31T02:00:07.205Z,12.26
2023-08-31T02:02:34.563Z,12.29
2023-08-31T02:05:02.928Z,12.31
2023-08-31T02:07:29.631Z,12.34
2023-08-31T02:09:56.467Z,12.36
2023-08-31T02:12:23.536Z,12.41
2023-08-31T02:14:50.861Z,12.41
2023-08-31T02:17:17.608Z,12.44
2023-08-31T02:19:44.227Z,12.48
2023-08-31T02:22:10.835Z,12.49
2023-08-31T02:24:37.558Z,12.49
2023-08-31T02:27:04.569Z,12.50
2023-08-31T02:29:31.218Z,12.48
2023-08-31T02:31:57.858Z,12.48
2023-08-31T02:34:24.567Z,12.44
2023-08-31T02:36:51.252Z,12.45
2023-08-31T02:39:17.874Z,12.43
2023-08-31T02:41:44.715Z,12.45
2023-08-31T02:44:12.624Z,12.46
2023-08-31T02:46:39.956Z,12.49
2023-08-31T02:49:07.015Z,12.50
2023-08-31T02:51:33.629Z,12.49
2023-08-31T02:54:00.360Z,12.53
2023-08-31T02:56:26.963Z,12.53
2023-08-31T02:58:53.582Z,12.55
2023-08-31T03:01:20.376Z,12.54
2023-08-31T03:03:47.847Z,12.56
2023-08-31T03:06:14.607Z,12.56
2023-08-31T03:08:41.347Z,12.55
2023-08-31T03:11:08.490Z,12.58
2023-08-31T03:13:35.367Z,12.54
2023-08-31T03:16:02.799Z,12.55
2023-08-31T03:18:30.288Z,12.53
2023-08-31T03:20:57.407Z,12.51
2023-08-31T03:23:24.004Z,12.49
2023-08-31T03:25:50.695Z,12.41
2023-08-31T03:28:17.374Z,12.38
2023-08-31T03:30:46.421Z,12.32
2023-08-31T03:33:13.951Z,12.29
2023-08-31T03:35:40.897Z,12.26
2023-08-31T03:38:07.837Z,12.19
2023-08-31T03:40:34.455Z,12.16
2023-08-31T03:43:01.356Z,12.12
2023-08-31T03:45:28.105Z,12.08
2023-08-31T03:47:55.050Z,12.08
2023-08-31T03:50:21.834Z,12.01
2023-08-31T03:52:48.510Z,12.01
2023-08-31T03:55:15.305Z,12.01
2023-08-31T03:57:41.990Z,11.99
2023-08-31T04:00:13.866Z,12.01
2023-08-31T04:02:40.645Z,11.99
2023-08-31T04:05:07.728Z,12.01
2023-08-31T04:07:36.321Z,12.00
2023-08-31T04:10:05.009Z,12.02
2023-08-31T04:12:31.959Z,12.02
2023-08-31T04:14:58.726Z,12.02
2023-08-31T04:17:25.609Z,11.98
2023-08-31T04:19:52.286Z,11.97
2023-08-31T04:22:19.127Z,11.94
2023-08-31T04:24:46.858Z,11.92
2023-08-31T04:27:13.588Z,11.89
2023-08-31T04:29:40.283Z,11.88
2023-08-31T04:32:06.951Z,11.86
2023-08-31T04:34:34.762Z,11.85
2023-08-31T04:37:04.374Z,11.83
2023-08-31T04:39:31.009Z,11.83
2023-08-31T04:41:57.672Z,11.82
2023-08-31T04:44:24.362Z,11.82
2023-08-31T04:46:51.024Z,11.81
2023-08-31T04:49:17.733Z,11.82
2023-08-31T04:51:45.618Z,11.84
2023-08-31T04:54:12.744Z,11.86
2023-08-31T04:56:41.586Z,11.91
2023-08-31T04:59:08.369Z,11.90
2023-08-31T05:01:35.166Z,11.93
2023-08-31T05:04:01.932Z,11.94
2023-08-31T05:06:28.663Z,11.97
2023-08-31T05:08:55.336Z,12.00
2023-08-31T05:11:21.999Z,12.04
2023-08-31T05:13:49.595Z,12.03
2023-08-31T05:16:17.436Z,12.04
2023-08-31T05:18:44.219Z,12.07
2023-08-31T05:21:10.797Z,12.13
2023-08-31T05:23:37.813Z,12.19
2023-08-31T05:26:04.589Z,12.23
2023-08-31T05:28:31.358Z,12.28
2023-08-31T05:30:59.269Z,12.39
2023-08-31T05:33:28.556Z,12.50
2023-08-31T05:35:55.877Z,12.62
2023-08-31T05:38:22.489Z,12.73
2023-08-31T05:40:49.253Z,12.82
2023-08-31T05:43:17.082Z,12.94
2023-08-31T05:45:44.184Z,13.08
2023-08-31T05:48:11.257Z,13.20
2023-08-31T05:50:38.123Z,13.33
2023-08-31T05:53:05.603Z,13.36
2023-08-31T05:55:33.904Z,13.38
2023-08-31T05:58:01.843Z,13.38
2023-08-31T06:00:28.774Z,13.39
2023-08-31T06:02:55.834Z,13.44
2023-08-31T06:05:22.626Z,13.44
2023-08-31T06:07:49.256Z,13.49
2023-08-31T06:10:16.551Z,13.60
2023-08-31T06:12:43.281Z,14.07
2023-08-31T06:15:10.446Z,14.60
2023-08-31T06:17:38.299Z,15.12
2023-08-31T06:20:06.854Z,15.40
2023-08-31T06:22:33.667Z,15.55
2023-08-31T06:25:00.948Z,15.88
2023-08-31T06:27:27.849Z,16.20
2023-08-31T06:29:54.521Z,16.50
2023-08-31T06:32:21.386Z,16.43
2023-08-31T06:34:48.351Z,16.26
2023-08-31T06:37:15.119Z,16.07
2023-08-31T06:39:42.408Z,15.93
2023-08-31T06:42:09.253Z,15.73
2023-08-31T06:44:36.968Z,15.53
2023-08-31T06:47:04.475Z,15.41
2023-08-31T06:49:33.962Z,15.62
2023-08-31T06:52:01.738Z,15.77
2023-08-31T06:54:28.468Z,16.14
2023-08-31T06:56:55.219Z,16.48
2023-08-31T06:59:21.843Z,16.82
2023-08-31T07:01:48.616Z,16.95
2023-08-31T07:04:15.421Z,17.08
2023-08-31T07:06:42.196Z,17.42
2023-08-31T07:09:09.594Z,17.45
2023-08-31T07:11:36.305Z,17.37
2023-08-31T07:14:03.306Z,17.26
2023-08-31T07:16:30.105Z,17.13
2023-08-31T07:18:56.976Z,17.08
2023-08-31T07:21:24.001Z,17.02
2023-08-31T07:23:50.786Z,16.78
2023-08-31T07:26:17.544Z,16.64
2023-08-31T07:28:44.347Z,16.61
2023-08-31T07:31:11.398Z,16.74
2023-08-31T07:33:38.225Z,16.86
2023-08-31T07:36:07.346Z,17.15
2023-08-31T07:38:34.822Z,17.30
2023-08-31T07:41:02.010Z,17.51
2023-08-31T07:43:28.937Z,17.87
2023-08-31T07:45:55.644Z,17.98
2023-08-31T07:48:23.054Z,18.05
2023-08-31T07:50:50.058Z,17.93
2023-08-31T07:53:18.571Z,17.90
2023-08-31T07:55:55.683Z,17.86
2023-08-31T07:58:23.374Z,17.78
2023-08-31T08:00:50.704Z,17.80
2023-08-31T08:03:17.678Z,17.94
2023-08-31T08:05:44.509Z,18.09
2023-08-31T08:08:12.195Z,17.97
2023-08-31T08:10:39.172Z,17.91
2023-08-31T08:13:06.213Z,17.74
2023-08-31T08:15:33.134Z,17.50
2023-08-31T08:17:59.943Z,17.30
2023-08-31T08:20:26.762Z,17.28
2023-08-31T08:22:53.538Z,17.23
2023-08-31T08:25:23.203Z,17.14
2023-08-31T08:27:50.015Z,17.24
2023-08-31T08:30:16.748Z,17.41
2023-08-31T08:32:44.403Z,17.45
2023-08-31T08:35:11.205Z,17.68
2023-08-31T08:37:38.978Z,17.92
2023-08-31T08:40:06.359Z,18.08
2023-08-31T08:42:42.315Z,18.12
2023-08-31T08:45:17.833Z,18.21
2023-08-31T08:47:45.533Z,18.24
2023-08-31T08:50:15.067Z,18.31
2023-08-31T08:52:42.976Z,18.38
2023-08-31T08:55:10.697Z,18.48
2023-08-31T08:57:38.174Z,18.51
2023-08-31T09:00:06.699Z,18.44
2023-08-31T09:02:33.598Z,18.51
2023-08-31T09:05:00.412Z,18.65
2023-08-31T09:07:31.249Z,18.82
2023-08-31T09:09:57.950Z,18.88
2023-08-31T09:12:25.797Z,18.90
2023-08-31T09:15:02.743Z,18.95
2023-08-31T09:17:40.573Z,19.04
2023-08-31T09:20:08.005Z,19.16
2023-08-31T09:22:35.388Z,19.09
2023-08-31T09:25:02.444Z,18.99
2023-08-31T09:27:29.282Z,18.81
2023-08-31T09:29:57.149Z,18.56
2023-08-31T09:32:23.943Z,18.43
2023-08-31T09:34:54.304Z,18.34
2023-08-31T09:37:26.421Z,18.27
2023-08-31T09:39:54.050Z,18.34
2023-08-31T09:42:21.384Z,18.57
2023-08-31T09:44:50.785Z,18.63
2023-08-31T09:47:21.044Z,18.80
2023-08-31T09:49:48.099Z,18.91
2023-08-31T09:52:16.058Z,19.12
2023-08-31T09:54:45.226Z,19.24
2023-08-31T09:57:14.232Z,19.21
2023-08-31T09:59:41.777Z,19.23
2023-08-31T10:02:10.737Z,19.12
2023-08-31T10:04:38.383Z,19.00
2023-08-31T10:07:07.305Z,18.86
2023-08-31T10:09:34.579Z,18.94
2023-08-31T10:12:04.620Z,19.04
2023-08-31T10:14:31.546Z,19.14
2023-08-31T10:16:59.215Z,19.21
2023-08-31T10:19:27.034Z,19.30
2023-08-31T10:21:54.292Z,19.41
2023-08-31T10:25:00.116Z,19.49
2023-08-31T10:27:28.071Z,19.63
2023-08-31T10:29:54.731Z,19.81
2023-08-31T10:32:22.507Z,20.11
2023-08-31T10:35:22.262Z,20.37
2023-08-31T10:37:50.041Z,20.41
2023-08-31T10:40:17.795Z,20.38
2023-08-31T10:42:48.540Z,20.43
2023-08-31T10:45:15.670Z,20.49
2023-08-31T10:47:45.453Z,20.47
2023-08-31T10:50:22.541Z,20.34
2023-08-31T10:52:50.277Z,20.47
2023-08-31T10:55:17.728Z,20.50
2023-08-31T10:57:44.456Z,20.45
2023-08-31T11:00:12.896Z,20.36
2023-08-31T11:02:42.895Z,20.04
2023-08-31T11:05:17.749Z,19.93
2023-08-31T11:07:45.774Z,19.96
2023-08-31T11:10:21.100Z,19.82
2023-08-31T11:12:49.920Z,19.74
2023-08-31T11:15:21.200Z,19.81
2023-08-31T11:17:49.112Z,19.78
2023-08-31T11:20:18.212Z,19.77
2023-08-31T11:22:48.286Z,19.65
2023-08-31T11:25:35.039Z,19.43
2023-08-31T11:28:06.355Z,19.24
2023-08-31T11:30:34.049Z,19.07
2023-08-31T11:33:12.841Z,19.20
2023-08-31T11:35:42.812Z,19.29
2023-08-31T11:38:09.616Z,19.21
2023-08-31T11:40:38.717Z,19.15
2023-08-31T11:43:08.804Z,19.21
2023-08-31T11:45:37.824Z,19.22
2023-08-31T11:48:05.257Z,19.16
2023-08-31T11:50:32.275Z,19.11
2023-08-31T11:52:59.022Z,19.08
2023-08-31T11:55:25.755Z,19.24
2023-08-31T11:57:55.677Z,19.49
2023-08-31T12:00:23.895Z,19.65
2023-08-31T12:03:00.860Z,19.74
2023-08-31T12:05:45.461Z,19.85
2023-08-31T12:08:12.280Z,19.93
2023-08-31T12:10:42.823Z,19.95
2023-08-31T12:13:11.630Z,19.99
2023-08-31T12:15:38.809Z,20.19
2023-08-31T12:18:12.758Z,20.34
2023-08-31T12:20:52.273Z,20.51
2023-08-31T12:23:22.590Z,20.53
2023-08-31T12:25:53.562Z,20.64
2023-08-31T12:28:21.935Z,20.87
2023-08-31T12:30:53.557Z,21.05
2023-08-31T12:33:21.565Z,21.32
2023-08-31T12:35:50.198Z,21.54
2023-08-31T12:38:16.932Z,21.65
2023-08-31T12:40:43.574Z,21.59
2023-08-31T12:43:11.179Z,21.22
2023-08-31T12:45:38.058Z,21.19
2023-08-31T12:48:06.584Z,21.27
2023-08-31T12:50:33.352Z,21.14
2023-08-31T12:53:00.375Z,21.17
2023-08-31T12:55:27.172Z,21.16
2023-08-31T12:57:53.848Z,21.24
2023-08-31T13:00:20.793Z,21.19
2023-08-31T13:02:48.190Z,20.95
2023-08-31T13:05:15.119Z,20.68
2023-08-31T13:07:41.880Z,20.57
2023-08-31T13:10:08.886Z,20.54
2023-08-31T13:12:35.613Z,20.38
2023-08-31T13:15:02.598Z,20.24
2023-08-31T13:17:29.577Z,20.10
2023-08-31T13:19:58.283Z,20.01
2023-08-31T13:22:25.743Z,19.95
2023-08-31T13:24:53.145Z,19.96
2023-08-31T13:27:20.203Z,19.89
2023-08-31T13:29:46.777Z,19.84
2023-08-31T13:32:13.576Z,19.88
2023-08-31T13:34:40.677Z,19.90
2023-08-31T13:37:07.396Z,19.87
2023-08-31T13:39:37.068Z,20.04
2023-08-31T13:42:04.959Z,20.23
2023-08-31T13:44:32.478Z,20.34
2023-08-31T13:46:59.342Z,20.28
2023-08-31T13:49:26.067Z,19.99
2023-08-31T13:51:52.773Z,19.53
2023-08-31T13:54:19.407Z,19.18
2023-08-31T13:56:46.130Z,19.09
2023-08-31T13:59:12.799Z,19.05
2023-08-31T14:01:39.609Z,18.97
2023-08-31T14:04:07.178Z,19.04
2023-08-31T14:06:33.914Z,19.16
2023-08-31T14:09:00.630Z,19.14
2023-08-31T14:11:30.879Z,19.20
2023-08-31T14:14:12.081Z,19.21
2023-08-31T14:16:39.728Z,19.22
2023-08-31T14:19:07.086Z,19.32
2023-08-31T14:21:33.981Z,19.44
2023-08-31T14:24:00.716Z,19.45
2023-08-31T14:26:27.457Z,19.43
2023-08-31T14:28:55.473Z,19.44
2023-08-31T14:31:22.273Z,19.44
2023-08-31T14:33:49.312Z,19.48
2023-08-31T14:36:17.327Z,19.60
2023-08-31T14:38:44.019Z,19.74
2023-08-31T14:41:12.037Z,19.81
2023-08-31T14:43:38.705Z,19.80
2023-08-31T14:46:05.475Z,19.84
2023-08-31T14:48:33.447Z,19.92
2023-08-31T14:51:01.597Z,20.01
2023-08-31T14:53:28.816Z,20.08
2023-08-31T14:55:55.845Z,20.06
2023-08-31T14:58:22.530Z,20.06
2023-08-31T15:00:49.685Z,20.14
2023-08-31T15:03:17.130Z,20.25
2023-08-31T15:05:44.034Z,20.28
2023-08-31T15:08:12.667Z,20.20
2023-08-31T15:10:40.929Z,20.09
2023-08-31T15:13:07.844Z,20.04
2023-08-31T15:15:34.965Z,20.01
2023-08-31T15:18:01.818Z,19.95
2023-08-31T15:20:28.606Z,19.91
2023-08-31T15:22:55.654Z,19.80
2023-08-31T15:25:23.650Z,19.73
2023-08-31T15:27:50.392Z,19.71
2023-08-31T15:30:17.368Z,19.69
2023-08-31T15:32:44.101Z,19.67
2023-08-31T15:35:13.408Z,19.63
2023-08-31T15:37:46.581Z,19.67
2023-08-31T15:40:13.346Z,19.70
2023-08-31T15:42:40.188Z,19.66
2023-08-31T15:45:07.276Z,19.67
2023-08-31T15:47:34.315Z,19.67
2023-08-31T15:50:01.072Z,19.61
2023-08-31T15:52:27.801Z,19.55
2023-08-31T15:54:55.726Z,19.59
2023-08-31T15:57:22.461Z,19.62
2023-08-31T15:59:49.267Z,19.56
2023-08-31T16:02:17.019Z,19.54
2023-08-31T16:04:45.157Z,19.46
2023-08-31T16:07:13.341Z,19.44
2023-08-31T16:09:40.824Z,19.43
2023-08-31T16:12:07.831Z,19.41
2023-08-31T16:14:37.162Z,19.39
2023-08-31T16:17:04.086Z,19.36
2023-08-31T16:19:33.880Z,19.40
2023-08-31T16:22:03.825Z,19.43
2023-08-31T16:24:30.445Z,19.49
2023-08-31T16:26:57.188Z,19.50
2023-08-31T16:29:24.990Z,19.45
2023-08-31T16:31:51.729Z,19.44
2023-08-31T16:34:18.667Z,19.44
2023-08-31T16:36:45.530Z,19.45
2023-08-31T16:39:12.364Z,19.48
2023-08-31T16:41:40.953Z,19.48
2023-08-31T16:44:07.640Z,19.46
2023-08-31T16:46:34.588Z,19.42
2023-08-31T16:49:01.382Z,19.40
2023-08-31T16:51:28.258Z,19.38
2023-08-31T16:53:55.047Z,19.34
2023-08-31T16:56:21.672Z,19.32
2023-08-31T16:58:48.318Z,19.23
2023-08-31T17:01:15.345Z,19.21
2023-08-31T17:03:42.098Z,19.17
2023-08-31T17:06:10.002Z,19.14
2023-08-31T17:08:36.696Z,19.09
2023-08-31T17:11:12.197Z,19.05
2023-08-31T17:13:39.229Z,19.02
2023-08-31T17:16:12.650Z,18.96
2023-08-31T17:18:40.714Z,18.87
2023-08-31T17:21:07.758Z,18.85
2023-08-31T17:23:34.647Z,18.77
2023-08-31T17:26:01.593Z,18.74
2023-08-31T17:28:29.709Z,18.65
2023-08-31T17:30:57.192Z,18.60
2023-08-31T17:33:25.764Z,18.55
2023-08-31T17:35:53.055Z,18.49
2023-08-31T17:38:19.816Z,18.45
2023-08-31T17:40:50.012Z,18.38
2023-08-31T17:43:17.507Z,18.33
2023-08-31T17:45:44.231Z,18.29
2023-08-31T17:48:10.986Z,18.20
2023-08-31T17:50:37.757Z,18.15
2023-08-31T17:53:04.789Z,18.09
2023-08-31T17:55:32.703Z,18.03
2023-08-31T17:57:59.424Z,17.98
2023-08-31T18:00:26.211Z,17.92
2023-08-31T18:02:53.627Z,17.86
2023-08-31T18:05:23.792Z,17.77
2023-08-31T18:07:51.024Z,17.70
2023-08-31T18:10:19.231Z,17.61
2023-08-31T18:12:46.670Z,17.52
2023-08-31T18:15:14.660Z,17.45
2023-08-31T18:17:41.331Z,17.38
2023-08-31T18:20:09.160Z,17.34
2023-08-31T18:22:36.113Z,17.28
2023-08-31T18:25:04.487Z,17.23
2023-08-31T18:27:31.239Z,17.17
2023-08-31T18:30:00.530Z,17.10
2023-08-31T18:32:27.453Z,17.03
2023-08-31T18:34:54.743Z,16.97
2023-08-31T18:37:21.466Z,16.92
2023-08-31T18:39:48.274Z,16.83
2023-08-31T18:42:15.366Z,16.77
2023-08-31T18:44:42.213Z,16.71
2023-08-31T18:47:08.880Z,16.67
2023-08-31T18:49:36.141Z,16.61
2023-08-31T18:52:03.090Z,16.55
2023-08-31T18:54:29.898Z,16.52
2023-08-31T18:56:56.646Z,16.45
2023-08-31T18:59:23.279Z,16.39
2023-08-31T19:01:51.355Z,16.34
2023-08-31T19:04:18.086Z,16.25
2023-08-31T19:06:45.007Z,16.20
2023-08-31T19:09:11.717Z,16.14
2023-08-31T19:11:39.221Z,16.10
2023-08-31T19:14:05.921Z,16.05
2023-08-31T19:16:33.802Z,15.99
2023-08-31T19:19:01.418Z,15.94
2023-08-31T19:21:28.161Z,15.88
2023-08-31T19:23:54.890Z,15.85
2023-08-31T19:26:22.610Z,15.80
2023-08-31T19:28:49.276Z,15.75
2023-08-31T19:31:15.988Z,15.71
2023-08-31T19:33:42.673Z,15.65
2023-08-31T19:36:11.249Z,15.61
2023-08-31T19:38:40.003Z,15.52
2023-08-31T19:41:07.329Z,15.44
2023-08-31T19:43:33.971Z,15.40
2023-08-31T19:46:02.108Z,15.37
2023-08-31T19:48:29.072Z,15.32
2023-08-31T19:51:05.070Z,15.29
2023-08-31T19:53:32.172Z,15.23
2023-08-31T19:55:58.971Z,15.19
2023-08-31T19:58:25.680Z,15.14
2023-08-31T20:00:52.864Z,15.12
2023-08-31T20:03:19.672Z,15.10
2023-08-31T20:05:46.560Z,15.06
2023-08-31T20:08:13.410Z,15.02
2023-08-31T20:10:40.275Z,14.99
2023-08-31T20:13:07.133Z,14.97
2023-08-31T20:15:34.309Z,14.95
2023-08-31T20:18:01.171Z,14.92
2023-08-31T20:20:31.458Z,14.89
2023-08-31T20:22:58.490Z,14.84
2023-08-31T20:25:25.191Z,14.81
2023-08-31T20:27:51.929Z,14.81
2023-08-31T20:30:19.568Z,14.75
2023-08-31T20:32:46.766Z,14.67
2023-08-31T20:35:15.219Z,14.62
2023-08-31T20:37:42.284Z,14.58
2023-08-31T20:40:10.120Z,14.57
2023-08-31T20:42:39.570Z,14.55
2023-08-31T20:45:08.191Z,14.54
2023-08-31T20:47:34.905Z,14.54
2023-08-31T20:50:03.012Z,14.56
2023-08-31T20:52:31.385Z,14.61
2023-08-31T20:54:59.237Z,14.64
2023-08-31T20:57:26.496Z,14.65
2023-08-31T20:59:53.196Z,14.67
2023-08-31T21:02:19.963Z,14.68
2023-08-31T21:04:47.759Z,14.69
2023-08-31T21:07:14.511Z,14.67
2023-08-31T21:09:42.089Z,14.66
2023-08-31T21:12:08.931Z,14.64
2023-08-31T21:14:35.657Z,14.62
2023-08-31T21:17:02.581Z,14.62
2023-08-31T21:19:29.330Z,14.60
2023-08-31T21:21:56.008Z,14.58
2023-08-31T21:24:22.670Z,14.58
2023-08-31T21:26:49.805Z,14.56
2023-08-31T21:29:16.471Z,14.56
2023-08-31T21:31:43.316Z,14.56
2023-08-31T21:34:09.964Z,14.53
2023-08-31T21:36:36.608Z,14.49
2023-08-31T21:39:03.896Z,14.48
2023-08-31T21:41:30.638Z,14.47
2023-08-31T21:43:57.424Z,14.45
2023-08-31T21:46:24.146Z,14.40
2023-08-31T21:48:53.387Z,14.36
2023-08-31T21:51:20.487Z,14.31
2023-08-31T21:53:47.276Z,14.28
2023-08-31T21:56:13.901Z,14.25
2023-08-31T21:58:41.040Z,14.24
2023-08-31T22:01:07.742Z,14.19
2023-08-31T22:03:34.615Z,14.14
2023-08-31T22:06:10.520Z,14.15
2023-08-31T22:08:37.581Z,14.15
2023-08-31T22:11:05.298Z,14.14
2023-08-31T22:13:32.193Z,14.08
2023-08-31T22:15:59.190Z,14.03
2023-08-31T22:18:26.060Z,14.01
2023-08-31T22:20:52.839Z,14.01
2023-08-31T22:23:19.842Z,14.01
2023-08-31T22:25:46.548Z,14.00
2023-08-31T22:28:14.235Z,14.00
2023-08-31T22:30:42.076Z,13.98
2023-08-31T22:33:11.875Z,13.98
2023-08-31T22:35:38.698Z,13.93
2023-08-31T22:38:05.372Z,13.92
2023-08-31T22:40:31.989Z,13.92
2023-08-31T22:42:58.576Z,13.87
2023-08-31T22:45:25.304Z,13.85
2023-08-31T22:47:52.242Z,13.85
2023-08-31T22:50:18.879Z,13.85
2023-08-31T22:52:45.591Z,13.82
2023-08-31T22:55:12.321Z,13.82
2023-08-31T22:57:39.297Z,13.81
2023-08-31T23:00:07.778Z,13.81
2023-08-31T23:02:34.706Z,13.79
2023-08-31T23:05:01.590Z,13.80
2023-08-31T23:07:28.374Z,13.78
2023-08-31T23:09:55.031Z,13.80
2023-08-31T23:12:21.889Z,13.79
2023-08-31T23:14:48.532Z,13.77
2023-08-31T23:17:15.766Z,13.78
2023-08-31T23:19:42.485Z,13.78
2023-08-31T23:22:09.477Z,13.77
2023-08-31T23:24:36.307Z,13.77
2023-08-31T23:27:03.482Z,13.77
2023-08-31T23:29:30.260Z,13.78
2023-08-31T23:31:57.029Z,13.78
2023-08-31T23:34:23.665Z,13.77
2023-08-31T23:36:51.822Z,13.73
2023-08-31T23:39:18.473Z,13.74
2023-08-31T23:41:45.090Z,13.73
2023-08-31T23:44:11.694Z,13.73
2023-08-31T23:46:38.641Z,13.74
2023-08-31T23:49:05.339Z,13.73
2023-08-31T23:51:32.839Z,13.72
2023-08-31T23:53:59.628Z,13.69
2023-08-31T23:56:26.272Z,13.65
2023-08-31T23:58:52.899Z,13.63
